EGUBEGVA

Guest
Details From EGUB - RAF Benson
To EGVA - RAF Fairford
Flight Number -
Tags generated
Created
Modified
Stats Distance 28 nm / 53 km
Max Altitude 800 ft / 244 m
Waypoints 3
Social Downloads 0
Likes 0
Share VATSIM

Download

Looking for another format? Having issues loading an existing format? Contact us
Advertisement - Login to hide

Notes

Basic altitude profile: - Ascent Rate: 2000ft/min - Ascent Speed: 150kts - Cruise Altitude: 4000ft - Cruise Speed: 180kts - Descent Rate: -1400ft/min - Descent Speed: 150kts Options: - Use NATs: yes - Use PACOTS: yes - Use low airways: yes - Use high airways: no

Route

EGUB BEREK EGVA

ID Type Via Altitude Latitude Longitude Leg Dist Tot Dist Heading (true) Name
O EGUB APT - 0 ft / 0 m 51.61503˚ -1.09586˚ - 0 nm - RAF Benson
BEREK FIX - 800 ft / 244 m 51.65639˚ -1.09528˚ 2 nm 2 nm 1° / 1° -
O EGVA APT - 0 ft / 0 m 51.68350˚ -1.79000˚ 25 nm 28 nm 274° / 273° RAF Fairford

Altitude Profile

Advertisement - Login to hide

EGUB

Details ICAO EGUB
Name RAF Benson
Region United Kingdom
Timezone Europe/London (UTC+1.0)
Stats Elevation 226 ft / 69 m (AMSL)
Location 51.615029° -1.095860°
Runways 1
Magnetic Variation 0.734° W

METAR

EGUB 250250Z AUTO 35003KT 4200 // BKN007/// BKN023/// 13/12 Q1017

Decode

TAF

Not found

Departure Runways

ID Width Length Bearing (true) Bearing (mag) Surface Threshold Offset Overrun Length
01 151 ft / 46 m 5,974 ft / 1,821 m 7.81° 8.54° Asphalt 0 ft / 0 m 200 ft / 61 m
19 151 ft / 46 m 5,974 ft / 1,821 m 187.81° 188.54° Asphalt 0 ft / 0 m 200 ft / 61 m

EGVA

Details ICAO EGVA (FFD)
Name RAF Fairford
Region United Kingdom
Timezone Europe/London (UTC+1.0)
Stats Elevation 286 ft / 87 m (AMSL)
Location 51.683500° -1.790000°
Runways 1
Magnetic Variation 0.989° W

METAR

EGVA 250317Z AUTO 02008KT 4400 -DZ BKN010 BKN022 BKN043 OVC100 13/11 A3006 RMK AO2 VIS 2400V5000 DZB17 SLP182 $

Decode

TAF

Not found

Destination Runways

ID Width Length Bearing (true) Bearing (mag) Surface Threshold Offset Overrun Length
09 200 ft / 61 m 9,962 ft / 3,036 m 87.88° 88.87° Asphalt 0 ft / 0 m 1,004 ft / 306 m
27 200 ft / 61 m 9,962 ft / 3,036 m 267.92° 268.91° Asphalt 0 ft / 0 m 965 ft / 294 m

Approach Navaids

Runway Type Ident Frequency Range Bearing (true) Bearing (mag) Slope Elevation
09 Localiser IFFD 111.10 MHz 18 nm / 33 km 87.95° 88.94° - 285 ft / 87 m (AMSL)
09 Glidescope IFFD 111.10 MHz 10 nm / 19 km 87.90° 88.89° 2.75° 256 ft / 78 m (AMSL)
27 Localiser IFFA 111.10 MHz 18 nm / 33 km 268.00° 268.99° - 254 ft / 77 m (AMSL)
27 Glidescope IFFA 111.10 MHz 10 nm / 19 km 267.90° 268.89° 2.85° 282 ft / 86 m (AMSL)